Lower Montville, New Jersey
Current Conditions -  °F | °C
As of 8:53 PM on Tuesday 25 Nov 2014 (Local Time) from KCDW Reporting Station
Clear Clear  
Wind Chill: 44°   Ceiling: Unl
Heat Index: 44°   Visibility: 10mi
Dew Point: 29°   Wind: 3mph
Humidity: 55%   Direction: 200°SSW
Pressure: 30.11"   Gusts: NA
Location:  40.915°N, 74.3686°W
Report Text: KCDW 260153Z 20003KT 10SM CLR 07/M02 A3011 RMK AO2 SLP203 T00671017
Loading
Personal Weather Stations






























Interactive Weather Map New forecast layout! Learn more

10-Day Weather Forecast

Advertisements
Track Severe Weather on mobile